sensor_id;sensor_type;location;lat;lon;timestamp;pressure;altitude;pressure_sealevel;temperature;humidity
34983;BME280;21187;50.976;13.720;2023-05-07T00:04:20;98594.69;;;13.10;55.10
34983;BME280;21187;50.976;13.720;2023-05-07T00:09:22;98595.00;;;13.05;55.10
34983;BME280;21187;50.976;13.720;2023-05-07T00:14:24;98599.13;;;12.99;55.45
34983;BME280;21187;50.976;13.720;2023-05-07T00:19:26;98601.25;;;12.90;55.61
34983;BME280;21187;50.976;13.720;2023-05-07T00:24:28;98599.94;;;12.84;55.54
34983;BME280;21187;50.976;13.720;2023-05-07T00:29:30;98594.09;;;12.81;55.48
34983;BME280;21187;50.976;13.720;2023-05-07T00:34:32;98601.44;;;12.81;55.56
34983;BME280;21187;50.976;13.720;2023-05-07T00:39:34;98587.06;;;12.80;55.70
34983;BME280;21187;50.976;13.720;2023-05-07T00:44:36;98599.53;;;12.81;55.82
34983;BME280;21187;50.976;13.720;2023-05-07T00:49:44;98597.22;;;12.84;55.93
34983;BME280;21187;50.976;13.720;2023-05-07T00:54:47;98595.50;;;12.75;56.03
34983;BME280;21187;50.976;13.720;2023-05-07T00:59:51;98592.34;;;12.73;56.06
34983;BME280;21187;50.976;13.720;2023-05-07T01:04:54;98583.03;;;12.74;55.95
34983;BME280;21187;50.976;13.720;2023-05-07T01:09:57;98597.34;;;12.71;56.19
34983;BME280;21187;50.976;13.720;2023-05-07T01:15:00;98598.13;;;12.72;56.29
34983;BME280;21187;50.976;13.720;2023-05-07T01:20:04;98594.19;;;12.69;56.31
34983;BME280;21187;50.976;13.720;2023-05-07T01:25:07;98593.81;;;12.71;56.27
34983;BME280;21187;50.976;13.720;2023-05-07T01:30:14;98599.19;;;12.67;56.19
34983;BME280;21187;50.976;13.720;2023-05-07T01:35:19;98600.69;;;12.64;56.27
34983;BME280;21187;50.976;13.720;2023-05-07T01:40:23;98599.88;;;12.64;56.44
34983;BME280;21187;50.976;13.720;2023-05-07T01:45:26;98609.19;;;12.63;56.60
34983;BME280;21187;50.976;13.720;2023-05-07T01:50:30;98609.78;;;12.56;56.37
34983;BME280;21187;50.976;13.720;2023-05-07T01:55:33;98613.22;;;12.53;56.65
34983;BME280;21187;50.976;13.720;2023-05-07T02:00:36;98615.59;;;12.55;56.75
34983;BME280;21187;50.976;13.720;2023-05-07T02:05:38;98607.44;;;12.55;56.74
34983;BME280;21187;50.976;13.720;2023-05-07T02:10:58;98605.94;;;12.57;56.77
34983;BME280;21187;50.976;13.720;2023-05-07T02:16:01;98611.38;;;12.57;56.74
34983;BME280;21187;50.976;13.720;2023-05-07T02:21:03;98609.88;;;12.60;56.90
34983;BME280;21187;50.976;13.720;2023-05-07T02:26:06;98619.34;;;12.66;56.74
34983;BME280;21187;50.976;13.720;2023-05-07T02:31:08;98620.34;;;12.58;56.86
34983;BME280;21187;50.976;13.720;2023-05-07T02:36:10;98614.28;;;12.48;57.22
34983;BME280;21187;50.976;13.720;2023-05-07T02:41:19;98622.19;;;12.54;56.92
34983;BME280;21187;50.976;13.720;2023-05-07T02:46:22;98619.88;;;12.56;56.83
34983;BME280;21187;50.976;13.720;2023-05-07T02:51:32;98612.44;;;12.53;56.71
34983;BME280;21187;50.976;13.720;2023-05-07T02:56:37;98618.56;;;12.49;56.40
34983;BME280;21187;50.976;13.720;2023-05-07T03:01:39;98620.41;;;12.45;56.55
34983;BME280;21187;50.976;13.720;2023-05-07T03:06:43;98617.28;;;12.43;56.66
34983;BME280;21187;50.976;13.720;2023-05-07T03:11:45;98610.25;;;12.42;56.68
34983;BME280;21187;50.976;13.720;2023-05-07T03:16:47;98617.28;;;12.43;56.59
34983;BME280;21187;50.976;13.720;2023-05-07T03:21:49;98621.13;;;12.42;56.79
34983;BME280;21187;50.976;13.720;2023-05-07T03:26:51;98623.84;;;12.42;56.77
34983;BME280;21187;50.976;13.720;2023-05-07T03:31:53;98627.34;;;12.43;56.52
34983;BME280;21187;50.976;13.720;2023-05-07T03:36:55;98633.47;;;12.40;56.72
34983;BME280;21187;50.976;13.720;2023-05-07T03:41:58;98633.13;;;12.41;56.59
34983;BME280;21187;50.976;13.720;2023-05-07T03:47:00;98637.41;;;12.42;56.63
34983;BME280;21187;50.976;13.720;2023-05-07T03:52:03;98633.56;;;12.43;56.61
34983;BME280;21187;50.976;13.720;2023-05-07T03:57:05;98636.72;;;12.45;56.76
34983;BME280;21187;50.976;13.720;2023-05-07T04:02:08;98634.97;;;12.37;56.56
34983;BME280;21187;50.976;13.720;2023-05-07T04:07:10;98637.16;;;12.31;56.70
34983;BME280;21187;50.976;13.720;2023-05-07T04:12:17;98635.47;;;12.27;56.64
34983;BME280;21187;50.976;13.720;2023-05-07T04:17:18;98641.63;;;12.24;56.76
34983;BME280;21187;50.976;13.720;2023-05-07T04:22:21;98636.91;;;12.21;56.90
34983;BME280;21187;50.976;13.720;2023-05-07T04:27:22;98643.88;;;12.22;56.96
34983;BME280;21187;50.976;13.720;2023-05-07T04:32:24;98647.94;;;12.28;56.93
34983;BME280;21187;50.976;13.720;2023-05-07T04:37:27;98658.97;;;12.35;56.87
34983;BME280;21187;50.976;13.720;2023-05-07T04:42:29;98669.03;;;12.35;56.94
34983;BME280;21187;50.976;13.720;2023-05-07T04:47:31;98668.25;;;12.34;56.98
34983;BME280;21187;50.976;13.720;2023-05-07T04:52:35;98677.53;;;12.33;56.79
34983;BME280;21187;50.976;13.720;2023-05-07T04:57:37;98684.81;;;12.29;56.88
34983;BME280;21187;50.976;13.720;2023-05-07T05:02:42;98687.53;;;12.29;56.90
34983;BME280;21187;50.976;13.720;2023-05-07T05:07:48;98690.91;;;12.26;56.93
34983;BME280;21187;50.976;13.720;2023-05-07T05:12:50;98684.34;;;12.27;56.99
34983;BME280;21187;50.976;13.720;2023-05-07T05:17:54;98676.56;;;12.25;57.01
34983;BME280;21187;50.976;13.720;2023-05-07T05:22:56;98688.91;;;12.23;56.95
34983;BME280;21187;50.976;13.720;2023-05-07T05:27:58;98692.84;;;12.25;57.04
34983;BME280;21187;50.976;13.720;2023-05-07T05:33:00;98699.53;;;12.28;56.98
34983;BME280;21187;50.976;13.720;2023-05-07T05:38:02;98703.81;;;12.29;56.97
34983;BME280;21187;50.976;13.720;2023-05-07T05:43:05;98703.81;;;12.29;56.97
34983;BME280;21187;50.976;13.720;2023-05-07T05:48:08;98714.69;;;12.29;56.88
34983;BME280;21187;50.976;13.720;2023-05-07T05:53:10;98714.22;;;12.27;57.04
34983;BME280;21187;50.976;13.720;2023-05-07T05:58:13;98725.09;;;12.27;57.05
34983;BME280;21187;50.976;13.720;2023-05-07T06:03:23;98728.50;;;12.24;56.76
34983;BME280;21187;50.976;13.720;2023-05-07T06:08:28;98737.38;;;12.21;56.89
34983;BME280;21187;50.976;13.720;2023-05-07T06:13:31;98746.06;;;12.14;57.07
34983;BME280;21187;50.976;13.720;2023-05-07T06:18:33;98749.94;;;12.13;56.90
34983;BME280;21187;50.976;13.720;2023-05-07T06:23:38;98762.28;;;12.10;56.85
34983;BME280;21187;50.976;13.720;2023-05-07T06:28:41;98765.44;;;12.12;57.03
34983;BME280;21187;50.976;13.720;2023-05-07T06:33:47;98752.09;;;12.07;56.92
34983;BME280;21187;50.976;13.720;2023-05-07T06:38:49;98749.63;;;12.02;56.89
34983;BME280;21187;50.976;13.720;2023-05-07T06:43:51;98769.78;;;12.01;56.81
34983;BME280;21187;50.976;13.720;2023-05-07T06:49:05;98770.91;;;12.00;57.01
34983;BME280;21187;50.976;13.720;2023-05-07T06:54:08;98764.91;;;12.07;56.88
34983;BME280;21187;50.976;13.720;2023-05-07T06:59:12;98771.75;;;12.17;57.16
34983;BME280;21187;50.976;13.720;2023-05-07T07:04:15;98780.47;;;12.22;56.90
34983;BME280;21187;50.976;13.720;2023-05-07T07:09:21;98776.16;;;12.21;57.08
34983;BME280;21187;50.976;13.720;2023-05-07T07:14:25;98770.38;;;12.23;56.84
34983;BME280;21187;50.976;13.720;2023-05-07T07:19:28;98766.63;;;12.27;56.68
34983;BME280;21187;50.976;13.720;2023-05-07T07:24:32;98774.44;;;12.29;56.89
34983;BME280;21187;50.976;13.720;2023-05-07T07:29:37;98777.34;;;12.36;56.61
34983;BME280;21187;50.976;13.720;2023-05-07T07:34:39;98786.59;;;12.35;56.78
34983;BME280;21187;50.976;13.720;2023-05-07T07:39:42;98781.09;;;12.31;56.77
34983;BME280;21187;50.976;13.720;2023-05-07T07:44:45;98776.69;;;12.27;56.60
34983;BME280;21187;50.976;13.720;2023-05-07T07:49:49;98799.22;;;12.27;56.64
34983;BME280;21187;50.976;13.720;2023-05-07T07:54:52;98798.41;;;12.27;56.53
34983;BME280;21187;50.976;13.720;2023-05-07T07:59:56;98799.81;;;12.21;56.86
34983;BME280;21187;50.976;13.720;2023-05-07T08:04:58;98807.81;;;12.29;56.73
34983;BME280;21187;50.976;13.720;2023-05-07T08:10:02;98814.94;;;12.34;56.47
34983;BME280;21187;50.976;13.720;2023-05-07T08:15:04;98815.34;;;12.36;56.36
34983;BME280;21187;50.976;13.720;2023-05-07T08:20:07;98810.81;;;12.40;56.28
34983;BME280;21187;50.976;13.720;2023-05-07T08:25:09;98814.09;;;12.46;56.16
34983;BME280;21187;50.976;13.720;2023-05-07T08:30:12;98823.13;;;12.50;56.02
34983;BME280;21187;50.976;13.720;2023-05-07T08:35:14;98812.59;;;12.48;55.95
34983;BME280;21187;50.976;13.720;2023-05-07T08:40:16;98822.31;;;12.49;55.99
34983;BME280;21187;50.976;13.720;2023-05-07T08:45:19;98816.09;;;12.49;55.78
34983;BME280;21187;50.976;13.720;2023-05-07T08:50:25;98833.28;;;12.53;55.99
34983;BME280;21187;50.976;13.720;2023-05-07T08:55:28;98837.34;;;12.59;56.16
34983;BME280;21187;50.976;13.720;2023-05-07T09:00:31;98834.03;;;12.66;55.76
34983;BME280;21187;50.976;13.720;2023-05-07T09:05:35;98845.31;;;12.68;55.57
34983;BME280;21187;50.976;13.720;2023-05-07T09:10:40;98836.84;;;12.70;55.59
34983;BME280;21187;50.976;13.720;2023-05-07T09:15:42;98837.91;;;12.81;55.46
34983;BME280;21187;50.976;13.720;2023-05-07T09:20:45;98850.66;;;12.93;55.31
34983;BME280;21187;50.976;13.720;2023-05-07T09:25:47;98850.84;;;13.00;55.33
34983;BME280;21187;50.976;13.720;2023-05-07T09:30:56;98842.34;;;13.02;55.24
34983;BME280;21187;50.976;13.720;2023-05-07T09:35:58;98848.66;;;13.06;55.19
34983;BME280;21187;50.976;13.720;2023-05-07T09:41:08;98842.06;;;13.07;54.92
34983;BME280;21187;50.976;13.720;2023-05-07T09:46:18;98841.72;;;13.08;55.06
34983;BME280;21187;50.976;13.720;2023-05-07T09:51:40;98847.34;;;13.15;54.82
34983;BME280;21187;50.976;13.720;2023-05-07T09:56:48;98850.25;;;13.23;54.47
34983;BME280;21187;50.976;13.720;2023-05-07T10:01:56;98838.13;;;13.20;54.47
34983;BME280;21187;50.976;13.720;2023-05-07T10:07:00;98849.28;;;13.31;54.56
34983;BME280;21187;50.976;13.720;2023-05-07T10:12:05;98838.25;;;13.56;54.08
34983;BME280;21187;50.976;13.720;2023-05-07T10:17:09;98849.47;;;13.70;53.88
34983;BME280;21187;50.976;13.720;2023-05-07T10:22:16;98841.66;;;13.69;53.52
34983;BME280;21187;50.976;13.720;2023-05-07T10:27:21;98847.88;;;13.69;53.67
34983;BME280;21187;50.976;13.720;2023-05-07T10:37:41;98848.75;;;13.73;52.95
34983;BME280;21187;50.976;13.720;2023-05-07T10:43:13;98847.16;;;13.72;53.47
34983;BME280;21187;50.976;13.720;2023-05-07T10:48:20;98855.00;;;13.74;52.86
34983;BME280;21187;50.976;13.720;2023-05-07T10:53:39;98842.31;;;13.81;53.07
34983;BME280;21187;50.976;13.720;2023-05-07T10:58:50;98847.34;;;13.79;53.13
34983;BME280;21187;50.976;13.720;2023-05-07T11:04:16;98852.34;;;13.77;52.90
34983;BME280;21187;50.976;13.720;2023-05-07T11:15:08;98851.53;;;13.93;52.64
34983;BME280;21187;50.976;13.720;2023-05-07T11:20:12;98854.09;;;14.05;52.57
34983;BME280;21187;50.976;13.720;2023-05-07T11:25:22;98847.81;;;14.21;52.32
34983;BME280;21187;50.976;13.720;2023-05-07T11:30:34;98854.72;;;14.34;52.29
34983;BME280;21187;50.976;13.720;2023-05-07T11:35:39;98844.84;;;14.45;52.18
34983;BME280;21187;50.976;13.720;2023-05-07T11:40:54;98839.75;;;14.63;52.14
34983;BME280;21187;50.976;13.720;2023-05-07T11:46:08;98845.53;;;14.81;51.81
34983;BME280;21187;50.976;13.720;2023-05-07T11:51:10;98851.84;;;14.86;51.57
34983;BME280;21187;50.976;13.720;2023-05-07T11:56:17;98843.38;;;14.91;51.47
34983;BME280;21187;50.976;13.720;2023-05-07T12:01:19;98855.13;;;14.95;51.69
34983;BME280;21187;50.976;13.720;2023-05-07T12:06:21;98855.94;;;14.95;51.29
34983;BME280;21187;50.976;13.720;2023-05-07T12:11:24;98862.16;;;14.96;51.24
34983;BME280;21187;50.976;13.720;2023-05-07T12:16:27;98855.69;;;15.04;51.34
34983;BME280;21187;50.976;13.720;2023-05-07T12:21:29;98858.91;;;15.10;50.95
34983;BME280;21187;50.976;13.720;2023-05-07T12:26:31;98861.75;;;15.17;50.83
34983;BME280;21187;50.976;13.720;2023-05-07T12:31:33;98873.59;;;15.25;51.09
34983;BME280;21187;50.976;13.720;2023-05-07T12:36:39;98868.97;;;15.29;50.80
34983;BME280;21187;50.976;13.720;2023-05-07T12:41:58;98861.03;;;15.43;50.69
34983;BME280;21187;50.976;13.720;2023-05-07T12:47:03;98861.16;;;15.51;50.46
34983;BME280;21187;50.976;13.720;2023-05-07T12:52:06;98857.56;;;15.46;50.42
34983;BME280;21187;50.976;13.720;2023-05-07T12:57:09;98850.44;;;15.65;50.64
34983;BME280;21187;50.976;13.720;2023-05-07T13:02:11;98853.38;;;15.79;50.49
34983;BME280;21187;50.976;13.720;2023-05-07T13:07:14;98848.94;;;15.94;50.50
34983;BME280;21187;50.976;13.720;2023-05-07T13:12:17;98853.66;;;15.97;50.15
34983;BME280;21187;50.976;13.720;2023-05-07T13:17:18;98855.09;;;15.88;50.18
34983;BME280;21187;50.976;13.720;2023-05-07T13:22:21;98859.72;;;15.84;50.23
34983;BME280;21187;50.976;13.720;2023-05-07T13:27:23;98854.56;;;15.78;50.00
34983;BME280;21187;50.976;13.720;2023-05-07T13:32:26;98852.50;;;15.72;50.01
34983;BME280;21187;50.976;13.720;2023-05-07T13:37:28;98844.66;;;15.70;50.22
34983;BME280;21187;50.976;13.720;2023-05-07T13:42:30;98840.78;;;15.71;50.29
34983;BME280;21187;50.976;13.720;2023-05-07T13:47:32;98843.19;;;15.76;50.06
34983;BME280;21187;50.976;13.720;2023-05-07T13:52:34;98845.94;;;15.76;50.02
34983;BME280;21187;50.976;13.720;2023-05-07T13:57:36;98832.72;;;15.78;49.89
34983;BME280;21187;50.976;13.720;2023-05-07T14:02:39;98837.00;;;15.79;49.69
34983;BME280;21187;50.976;13.720;2023-05-07T14:07:42;98847.22;;;15.83;49.87
34983;BME280;21187;50.976;13.720;2023-05-07T14:12:44;98847.22;;;15.83;49.65
34983;BME280;21187;50.976;13.720;2023-05-07T14:17:48;98835.44;;;15.78;49.44
34983;BME280;21187;50.976;13.720;2023-05-07T14:22:50;98843.19;;;15.76;49.27
34983;BME280;21187;50.976;13.720;2023-05-07T14:27:52;98828.38;;;15.77;49.10
34983;BME280;21187;50.976;13.720;2023-05-07T14:32:54;98828.78;;;15.79;49.40
34983;BME280;21187;50.976;13.720;2023-05-07T14:37:56;98828.09;;;15.83;48.93
34983;BME280;21187;50.976;13.720;2023-05-07T14:42:58;98823.03;;;15.85;49.13
34983;BME280;21187;50.976;13.720;2023-05-07T14:48:00;98819.91;;;15.83;49.00
34983;BME280;21187;50.976;13.720;2023-05-07T14:53:02;98823.03;;;15.85;49.08
34983;BME280;21187;50.976;13.720;2023-05-07T14:58:05;98825.38;;;15.83;48.88
34983;BME280;21187;50.976;13.720;2023-05-07T15:03:09;98833.84;;;15.77;48.64
34983;BME280;21187;50.976;13.720;2023-05-07T15:08:11;98850.13;;;15.70;48.95
34983;BME280;21187;50.976;13.720;2023-05-07T15:13:13;98849.34;;;15.70;48.99
34983;BME280;21187;50.976;13.720;2023-05-07T15:18:16;98836.16;;;15.75;48.98
34983;BME280;21187;50.976;13.720;2023-05-07T15:23:18;98836.16;;;15.75;48.82
34983;BME280;21187;50.976;13.720;2023-05-07T15:28:22;98831.53;;;15.79;48.60
34983;BME280;21187;50.976;13.720;2023-05-07T15:33:29;98828.38;;;15.77;48.62
34983;BME280;21187;50.976;13.720;2023-05-07T15:38:31;98845.88;;;15.73;48.74
34983;BME280;21187;50.976;13.720;2023-05-07T15:43:32;98858.63;;;15.65;48.52
34983;BME280;21187;50.976;13.720;2023-05-07T15:48:35;98857.69;;;15.54;48.41
34983;BME280;21187;50.976;13.720;2023-05-07T15:53:38;98857.56;;;15.46;48.43
34983;BME280;21187;50.976;13.720;2023-05-07T15:58:41;98864.91;;;15.42;48.67
34983;BME280;21187;50.976;13.720;2023-05-07T16:03:43;98864.88;;;15.39;48.45
34983;BME280;21187;50.976;13.720;2023-05-07T16:08:46;98866.78;;;15.38;48.50
34983;BME280;21187;50.976;13.720;2023-05-07T16:13:48;98867.53;;;15.35;48.64
34983;BME280;21187;50.976;13.720;2023-05-07T16:18:50;98863.66;;;15.36;48.48
34983;BME280;21187;50.976;13.720;2023-05-07T16:23:52;98864.34;;;15.33;48.76
34983;BME280;21187;50.976;13.720;2023-05-07T16:28:54;98864.66;;;15.28;48.51
34983;BME280;21187;50.976;13.720;2023-05-07T16:33:57;98875.16;;;15.26;48.45
34983;BME280;21187;50.976;13.720;2023-05-07T16:38:59;98876.91;;;15.14;48.35
34983;BME280;21187;50.976;13.720;2023-05-07T16:44:01;98879.81;;;15.02;48.41
34983;BME280;21187;50.976;13.720;2023-05-07T16:49:04;98880.88;;;14.97;48.85
34983;BME280;21187;50.976;13.720;2023-05-07T16:54:07;98873.66;;;14.86;48.50
34983;BME280;21187;50.976;13.720;2023-05-07T16:59:10;98873.09;;;14.76;48.80
34983;BME280;21187;50.976;13.720;2023-05-07T17:04:12;98880.28;;;14.65;48.58
34983;BME280;21187;50.976;13.720;2023-05-07T17:09:15;98874.72;;;14.61;48.85
34983;BME280;21187;50.976;13.720;2023-05-07T17:14:20;98889.44;;;14.57;48.69
34983;BME280;21187;50.976;13.720;2023-05-07T17:19:22;98891.75;;;14.55;48.49
34983;BME280;21187;50.976;13.720;2023-05-07T17:24:24;98901.06;;;14.54;48.75
34983;BME280;21187;50.976;13.720;2023-05-07T17:29:26;98904.91;;;14.53;48.78
34983;BME280;21187;50.976;13.720;2023-05-07T17:34:28;98906.66;;;14.41;48.52
34983;BME280;21187;50.976;13.720;2023-05-07T17:39:31;98913.78;;;14.30;48.69
34983;BME280;21187;50.976;13.720;2023-05-07T17:44:33;98914.34;;;14.20;48.57
34983;BME280;21187;50.976;13.720;2023-05-07T17:49:35;98920.34;;;14.09;48.80
34983;BME280;21187;50.976;13.720;2023-05-07T17:54:38;98924.41;;;14.00;48.74
34983;BME280;21187;50.976;13.720;2023-05-07T17:59:39;98919.13;;;13.91;48.81
34983;BME280;21187;50.976;13.720;2023-05-07T18:04:44;98926.72;;;13.81;48.62
34983;BME280;21187;50.976;13.720;2023-05-07T18:09:47;98931.22;;;13.74;48.52
34983;BME280;21187;50.976;13.720;2023-05-07T18:14:49;98935.69;;;13.66;48.81
34983;BME280;21187;50.976;13.720;2023-05-07T18:19:51;98935.84;;;13.57;48.95
34983;BME280;21187;50.976;13.720;2023-05-07T18:24:56;98942.16;;;13.45;49.14
34983;BME280;21187;50.976;13.720;2023-05-07T18:29:58;98939.94;;;13.35;49.07
34983;BME280;21187;50.976;13.720;2023-05-07T18:35:01;98938.63;;;13.29;48.95
34983;BME280;21187;50.976;13.720;2023-05-07T18:40:04;98947.03;;;13.24;49.21
34983;BME280;21187;50.976;13.720;2023-05-07T18:45:07;98957.72;;;13.17;49.26
34983;BME280;21187;50.976;13.720;2023-05-07T18:50:09;98962.16;;;13.09;49.31
34983;BME280;21187;50.976;13.720;2023-05-07T18:55:12;98969.00;;;13.03;49.00
34983;BME280;21187;50.976;13.720;2023-05-07T19:00:14;98973.88;;;12.97;48.92
34983;BME280;21187;50.976;13.720;2023-05-07T19:05:17;98979.47;;;12.88;49.37
34983;BME280;21187;50.976;13.720;2023-05-07T19:10:19;98981.63;;;12.82;49.51
34983;BME280;21187;50.976;13.720;2023-05-07T19:15:21;98979.50;;;12.76;49.55
34983;BME280;21187;50.976;13.720;2023-05-07T19:20:23;98973.41;;;12.67;49.58
34983;BME280;21187;50.976;13.720;2023-05-07T19:25:25;98980.13;;;12.57;49.80
34983;BME280;21187;50.976;13.720;2023-05-07T19:30:28;98987.06;;;12.42;49.77
34983;BME280;21187;50.976;13.720;2023-05-07T19:35:30;98996.00;;;12.30;49.88
34983;BME280;21187;50.976;13.720;2023-05-07T19:40:32;98992.16;;;12.19;50.02
34983;BME280;21187;50.976;13.720;2023-05-07T19:45:34;98995.56;;;12.15;50.13
34983;BME280;21187;50.976;13.720;2023-05-07T19:50:36;99001.22;;;12.10;50.02
34983;BME280;21187;50.976;13.720;2023-05-07T19:55:38;99007.22;;;12.04;50.16
34983;BME280;21187;50.976;13.720;2023-05-07T20:00:40;99026.53;;;12.02;50.21
34983;BME280;21187;50.976;13.720;2023-05-07T20:05:45;99021.78;;;11.99;50.19
34983;BME280;21187;50.976;13.720;2023-05-07T20:10:49;99023.09;;;11.93;50.08
34983;BME280;21187;50.976;13.720;2023-05-07T20:15:51;99028.78;;;11.88;50.26
34983;BME280;21187;50.976;13.720;2023-05-07T20:20:53;99034.97;;;11.88;50.39
34983;BME280;21187;50.976;13.720;2023-05-07T20:25:57;99035.41;;;11.90;50.42
34983;BME280;21187;50.976;13.720;2023-05-07T20:30:58;99035.31;;;11.87;50.95
34983;BME280;21187;50.976;13.720;2023-05-07T20:36:00;99038.47;;;11.89;50.73
34983;BME280;21187;50.976;13.720;2023-05-07T20:41:06;99035.88;;;11.92;50.73
34983;BME280;21187;50.976;13.720;2023-05-07T20:46:09;99044.03;;;11.92;50.58
34983;BME280;21187;50.976;13.720;2023-05-07T20:51:10;99049.81;;;11.91;50.75
34983;BME280;21187;50.976;13.720;2023-05-07T20:56:14;99054.31;;;11.87;50.69
34983;BME280;21187;50.976;13.720;2023-05-07T21:01:16;99059.50;;;11.79;50.65
34983;BME280;21187;50.976;13.720;2023-05-07T21:06:24;99059.06;;;11.77;50.61
34983;BME280;21187;50.976;13.720;2023-05-07T21:11:26;99054.97;;;11.71;50.91
34983;BME280;21187;50.976;13.720;2023-05-07T21:16:28;99059.47;;;11.67;50.82
34983;BME280;21187;50.976;13.720;2023-05-07T21:21:30;99060.16;;;11.64;50.85
34983;BME280;21187;50.976;13.720;2023-05-07T21:26:32;99054.72;;;11.64;50.71
34983;BME280;21187;50.976;13.720;2023-05-07T21:31:34;99062.41;;;11.62;50.56
34983;BME280;21187;50.976;13.720;2023-05-07T21:36:36;99068.50;;;11.59;50.37
34983;BME280;21187;50.976;13.720;2023-05-07T21:41:38;99066.91;;;11.58;50.49
34983;BME280;21187;50.976;13.720;2023-05-07T21:46:40;99071.84;;;11.56;50.56
34983;BME280;21187;50.976;13.720;2023-05-07T21:51:42;99071.28;;;11.50;50.56
34983;BME280;21187;50.976;13.720;2023-05-07T21:56:44;99073.41;;;11.44;50.32
34983;BME280;21187;50.976;13.720;2023-05-07T22:01:48;99074.06;;;11.41;50.51
34983;BME280;21187;50.976;13.720;2023-05-07T22:06:49;99083.34;;;11.40;50.51
34983;BME280;21187;50.976;13.720;2023-05-07T22:11:51;99084.81;;;11.38;50.53
34983;BME280;21187;50.976;13.720;2023-05-07T22:16:53;99077.41;;;11.26;50.50
34983;BME280;21187;50.976;13.720;2023-05-07T22:21:55;99069.19;;;11.13;50.76
34983;BME280;21187;50.976;13.720;2023-05-07T22:26:57;99072.50;;;10.98;51.13
34983;BME280;21187;50.976;13.720;2023-05-07T22:31:59;99069.31;;;10.96;51.27
34983;BME280;21187;50.976;13.720;2023-05-07T22:37:01;99063.13;;;10.95;51.01
34983;BME280;21187;50.976;13.720;2023-05-07T22:42:02;99065.50;;;10.97;51.42
34983;BME280;21187;50.976;13.720;2023-05-07T22:47:04;99058.50;;;10.96;51.23
34983;BME280;21187;50.976;13.720;2023-05-07T22:52:06;99067.09;;;10.98;51.25
34983;BME280;21187;50.976;13.720;2023-05-07T22:57:08;99062.78;;;10.97;50.95
34983;BME280;21187;50.976;13.720;2023-05-07T23:02:10;99067.72;;;10.95;51.05
34983;BME280;21187;50.976;13.720;2023-05-07T23:07:12;99065.22;;;10.90;51.17
34983;BME280;21187;50.976;13.720;2023-05-07T23:12:14;99059.34;;;10.88;51.04
34983;BME280;21187;50.976;13.720;2023-05-07T23:17:16;99056.63;;;10.88;51.50
34983;BME280;21187;50.976;13.720;2023-05-07T23:22:18;99063.50;;;10.85;50.98
34983;BME280;21187;50.976;13.720;2023-05-07T23:27:20;99077.41;;;10.84;51.20
34983;BME280;21187;50.976;13.720;2023-05-07T23:32:22;99068.78;;;10.81;51.02
34983;BME280;21187;50.976;13.720;2023-05-07T23:37:24;99069.47;;;10.78;51.30
34983;BME280;21187;50.976;13.720;2023-05-07T23:42:26;99073.94;;;10.74;51.02
34983;BME280;21187;50.976;13.720;2023-05-07T23:47:27;99071.63;;;10.64;51.44
34983;BME280;21187;50.976;13.720;2023-05-07T23:52:30;99067.69;;;10.53;51.37
34983;BME280;21187;50.976;13.720;2023-05-07T23:57:32;99059.28;;;10.45;51.54
